Time;durP1;ratioP1;P1;durP2;ratioP2;P2;SDS_P1;SDS_P2;PMS_P1;PMS_P2;Temp;Humidity;BMP_temperature;BMP_pressure;BME280_temperature;BME280_humidity;BME280_pressure;Samples;Min_cycle;Max_cycle;Signal;HPM_P1;HPM_P2
2023/07/24 00:00:30;;;;;;;4.83;3.47;;;;;;;25.26;58.54;96854.72;5077482;28;20701;-27
2023/07/24 00:02:57;;;;;;;4.73;3.73;;;;;;;25.25;58.54;96852.97;5069532;28;20660;-27
2023/07/24 00:05:24;;;;;;;4.87;3.57;;;;;;;25.22;58.76;96847.00;5076450;28;20702;-27
2023/07/24 00:07:50;;;;;;;5.47;3.50;;;;;;;25.23;58.63;96851.28;5075419;28;20242;-27
2023/07/24 00:10:17;;;;;;;4.60;3.47;;;;;;;25.17;58.59;96842.66;5074579;28;20550;-27
2023/07/24 00:12:44;;;;;;;4.33;3.60;;;;;;;25.22;58.50;96852.97;5073571;28;20200;-27
2023/07/24 00:15:10;;;;;;;4.87;3.70;;;;;;;25.21;58.56;96852.97;5060087;28;20197;-27
2023/07/24 00:17:37;;;;;;;5.43;3.80;;;;;;;25.24;58.40;96847.84;5071923;28;20257;-27
2023/07/24 00:20:04;;;;;;;4.27;3.40;;;;;;;25.24;58.53;96847.84;5052362;28;20197;-27
2023/07/24 00:22:30;;;;;;;6.40;4.03;;;;;;;25.24;58.84;96851.28;5072752;28;20207;-27
2023/07/24 00:24:57;;;;;;;4.23;3.50;;;;;;;25.22;58.83;96847.84;5076960;28;20192;-27
2023/07/24 00:27:24;;;;;;;4.43;3.77;;;;;;;25.24;58.52;96851.28;5079556;28;20192;-27
2023/07/24 00:29:50;;;;;;;4.47;3.47;;;;;;;25.23;58.49;96859.84;5068560;28;20200;-27
2023/07/24 00:32:17;;;;;;;4.33;3.33;;;;;;;25.22;58.99;96854.72;5075923;28;20200;-27
2023/07/24 00:34:44;;;;;;;4.30;3.57;;;;;;;25.22;58.88;96865.00;5067363;28;20287;-29
2023/07/24 00:37:10;;;;;;;5.80;4.17;;;;;;;25.24;58.92;96866.72;5066812;28;20278;-27
2023/07/24 00:39:37;;;;;;;4.07;3.40;;;;;;;25.22;58.62;96852.97;5069208;28;20200;-27
2023/07/24 00:42:04;;;;;;;4.50;3.53;;;;;;;25.23;58.81;96857.28;5072553;28;20619;-27
2023/07/24 00:44:30;;;;;;;4.33;3.50;;;;;;;25.26;58.83;96864.16;5070171;28;20196;-27
2023/07/24 00:46:57;;;;;;;4.53;3.47;;;;;;;25.23;58.85;96854.72;5078127;28;20650;-27
2023/07/24 00:49:23;;;;;;;5.17;3.60;;;;;;;25.23;58.47;96865.00;5070436;28;20224;-27
2023/07/24 00:51:50;;;;;;;4.53;3.87;;;;;;;25.21;58.74;96853.84;5069097;28;20662;-33
2023/07/24 00:54:17;;;;;;;5.00;3.57;;;;;;;25.20;58.87;96857.28;5074891;28;20202;-27
2023/07/24 00:56:44;;;;;;;4.63;3.27;;;;;;;25.25;58.97;96867.59;5057096;28;20227;-31
2023/07/24 00:59:11;;;;;;;4.40;3.20;;;;;;;25.21;58.56;96853.84;5084782;28;20191;-27
2023/07/24 01:01:38;;;;;;;4.73;4.00;;;;;;;25.24;58.46;96861.56;5059133;28;20196;-27
2023/07/24 01:04:04;;;;;;;4.60;3.60;;;;;;;25.23;58.71;96862.44;5072638;28;20208;-27
2023/07/24 01:06:31;;;;;;;3.97;3.40;;;;;;;25.23;58.87;96857.28;5054484;28;20225;-27
2023/07/24 01:08:58;;;;;;;4.83;3.40;;;;;;;25.24;58.87;96855.56;5074025;28;20192;-27
2023/07/24 01:11:27;;;;;;;4.77;3.60;;;;;;;25.23;58.82;96852.13;5078551;28;20693;-28
2023/07/24 01:13:58;;;;;;;4.63;3.50;;;;;;;25.23;58.67;96862.44;5072574;28;20244;-27
2023/07/24 01:16:28;;;;;;;5.30;3.83;;;;;;;25.25;58.92;96862.44;5072894;28;20224;-27
2023/07/24 01:18:55;;;;;;;3.80;3.40;;;;;;;25.22;58.74;96844.41;5079269;28;20224;-27
2023/07/24 01:21:29;;;;;;;4.90;3.50;;;;;;;25.24;58.59;96834.97;5038172;28;20246;-27
2023/07/24 01:24:03;;;;;;;5.97;3.70;;;;;;;25.22;58.63;96837.53;5074810;28;20194;-29
2023/07/24 01:26:29;;;;;;;4.50;3.80;;;;;;;25.22;58.92;96844.41;5057985;28;20278;-28
2023/07/24 01:28:57;;;;;;;4.70;3.60;;;;;;;25.24;58.90;96835.84;5053741;28;20193;-27
2023/07/24 01:31:23;;;;;;;5.37;3.53;;;;;;;25.23;58.85;96836.72;5068486;28;20200;-45
2023/07/24 01:33:50;;;;;;;4.70;3.80;;;;;;;25.23;59.00;96841.84;5072334;28;20222;-27
2023/07/24 01:36:16;;;;;;;3.87;3.40;;;;;;;25.23;58.82;96854.72;5067475;28;20212;-27
2023/07/24 01:38:43;;;;;;;5.00;3.63;;;;;;;25.23;58.78;96865.00;5067016;28;20502;-27
2023/07/24 01:41:10;;;;;;;4.07;3.43;;;;;;;25.21;58.74;96870.97;5073553;28;20200;-27
2023/07/24 01:43:36;;;;;;;4.73;3.50;;;;;;;25.24;59.22;96882.13;5058060;28;20211;-27
2023/07/24 01:46:03;;;;;;;4.73;3.50;;;;;;;25.21;59.25;96878.69;5080335;28;20219;-28
2023/07/24 01:48:29;;;;;;;4.30;3.10;;;;;;;25.24;58.86;96855.56;5083890;28;20202;-27
2023/07/24 01:50:56;;;;;;;3.60;3.13;;;;;;;25.21;59.01;96829.81;5073182;28;20662;-29
2023/07/24 01:53:23;;;;;;;4.30;3.37;;;;;;;25.24;59.50;96837.53;5085134;28;20200;-29
2023/07/24 01:55:49;;;;;;;3.97;3.30;;;;;;;25.22;58.92;96847.00;5070487;28;20228;-27
2023/07/24 01:58:16;;;;;;;4.33;3.40;;;;;;;25.23;59.26;96844.44;5087531;28;20748;-27
2023/07/24 02:00:43;;;;;;;3.63;3.23;;;;;;;25.20;59.03;96844.41;5083123;28;20219;-27
2023/07/24 02:03:09;;;;;;;4.40;3.67;;;;;;;25.24;59.34;96852.97;5077958;28;20200;-27
2023/07/24 02:05:36;;;;;;;4.30;3.70;;;;;;;25.23;58.99;96846.13;5083918;28;20518;-27
2023/07/24 02:08:03;;;;;;;4.53;3.90;;;;;;;25.21;59.39;96835.84;5074244;28;20253;-27
2023/07/24 02:10:29;;;;;;;4.33;3.37;;;;;;;25.22;59.11;96832.41;5073150;28;20200;-27
2023/07/24 02:12:56;;;;;;;4.57;3.33;;;;;;;25.22;59.07;96831.56;5077583;28;20250;-27
2023/07/24 02:15:23;;;;;;;4.17;3.63;;;;;;;25.22;59.17;96834.97;5075653;28;20269;-27
2023/07/24 02:17:49;;;;;;;3.87;3.40;;;;;;;25.23;59.33;96830.69;5075413;28;20698;-27
2023/07/24 02:20:16;;;;;;;4.40;3.80;;;;;;;25.20;59.17;96825.53;5075765;28;20231;-27
2023/07/24 02:22:42;;;;;;;4.00;3.60;;;;;;;25.22;59.49;96834.97;5086571;28;20200;-28
2023/07/24 02:25:09;;;;;;;4.33;3.80;;;;;;;25.20;59.53;96833.25;5069813;28;20656;-27
2023/07/24 02:27:36;;;;;;;4.27;3.60;;;;;;;25.22;59.50;96841.84;5076589;28;20202;-27
2023/07/24 02:30:03;;;;;;;4.60;3.40;;;;;;;25.23;58.87;96846.13;5077055;28;20200;-27
2023/07/24 02:32:29;;;;;;;4.27;3.53;;;;;;;25.23;59.00;96848.69;5072334;28;20196;-28
2023/07/24 02:34:56;;;;;;;4.10;3.40;;;;;;;25.20;59.08;96838.41;5072686;28;20200;-27
2023/07/24 02:37:22;;;;;;;4.47;3.63;;;;;;;25.22;59.07;96834.97;5070505;28;20238;-27
2023/07/24 02:39:49;;;;;;;4.70;3.50;;;;;;;25.22;59.20;96829.81;5067979;28;20200;-27
2023/07/24 02:42:16;;;;;;;4.10;3.57;;;;;;;25.22;59.10;96824.69;5066199;28;20659;-27
2023/07/24 02:44:42;;;;;;;4.10;3.70;;;;;;;25.19;58.94;96806.66;5071451;28;20199;-27
2023/07/24 02:47:09;;;;;;;4.33;3.43;;;;;;;25.22;59.46;96806.69;5083624;28;20226;-29
2023/07/24 02:49:35;;;;;;;4.83;3.70;;;;;;;25.22;59.22;96806.69;5074781;28;20269;-27
2023/07/24 02:52:02;;;;;;;3.50;3.20;;;;;;;25.22;58.90;96801.53;5075172;28;20641;-27
2023/07/24 02:54:29;;;;;;;3.90;3.43;;;;;;;25.22;59.18;96806.69;5073074;28;20282;-27
2023/07/24 02:56:56;;;;;;;4.00;3.60;;;;;;;25.22;59.43;96811.81;5071974;28;20907;-27
2023/07/24 02:59:22;;;;;;;4.03;3.53;;;;;;;25.22;59.20;96809.25;5071634;28;20220;-27
2023/07/24 03:01:49;;;;;;;3.80;3.40;;;;;;;25.22;59.23;96796.41;5063066;28;20229;-30
2023/07/24 03:04:15;;;;;;;4.10;3.63;;;;;;;25.22;59.24;96798.13;5062021;28;20192;-32
2023/07/24 03:06:42;;;;;;;4.33;3.67;;;;;;;25.23;59.49;96815.28;5060769;28;20217;-27
2023/07/24 03:09:08;;;;;;;4.17;3.60;;;;;;;25.23;59.02;96838.41;5063580;28;20249;-36
2023/07/24 03:11:35;;;;;;;3.67;3.27;;;;;;;25.22;59.48;96857.28;5073016;28;20211;-28
2023/07/24 03:14:02;;;;;;;5.10;3.90;;;;;;;25.21;59.43;96864.13;5065296;28;20197;-27
2023/07/24 03:16:28;;;;;;;4.30;3.67;;;;;;;25.22;59.50;96924.16;5064176;28;20224;-27
2023/07/24 03:18:55;;;;;;;4.07;3.43;;;;;;;25.23;59.45;96996.16;5062080;28;20221;-27
2023/07/24 03:21:22;;;;;;;3.90;3.43;;;;;;;25.23;59.09;97060.47;5067674;28;20191;-27
2023/07/24 03:23:49;;;;;;;4.03;3.47;;;;;;;25.24;59.57;97067.31;5070969;28;20230;-27
2023/07/24 03:26:15;;;;;;;3.40;3.10;;;;;;;25.24;58.95;97009.88;5063800;28;20219;-32
2023/07/24 03:28:42;;;;;;;3.53;3.23;;;;;;;25.25;59.40;96997.00;5064954;28;20288;-27
2023/07/24 03:31:09;;;;;;;3.87;3.47;;;;;;;25.23;59.45;96973.03;5062177;28;20241;-27
2023/07/24 03:33:35;;;;;;;4.57;3.80;;;;;;;25.23;58.87;96959.28;5071799;28;20287;-27
2023/07/24 03:36:02;;;;;;;3.60;3.27;;;;;;;25.23;58.98;96926.72;5081828;28;20219;-27
2023/07/24 03:38:29;;;;;;;3.70;3.30;;;;;;;25.15;58.97;96889.81;5070288;28;20650;-27
2023/07/24 03:40:55;;;;;;;4.33;3.43;;;;;;;25.21;59.15;96804.97;5064682;28;20203;-27
2023/07/24 03:43:22;;;;;;;3.90;3.40;;;;;;;25.26;58.75;96679.84;5065447;28;20197;-28
2023/07/24 03:45:48;;;;;;;3.30;3.00;;;;;;;25.26;58.71;96576.09;5081732;28;20223;-27
2023/07/24 03:48:15;;;;;;;4.17;3.37;;;;;;;25.27;59.09;96599.25;5073772;28;20256;-32
2023/07/24 03:50:41;;;;;;;3.70;3.30;;;;;;;25.26;58.91;96601.81;5060505;28;20259;-27
2023/07/24 03:53:08;;;;;;;4.00;3.30;;;;;;;25.27;59.11;96637.81;5060678;28;20201;-27
2023/07/24 03:55:35;;;;;;;4.17;3.40;;;;;;;25.24;58.81;96660.09;5059680;28;20232;-30
2023/07/24 03:58:02;;;;;;;3.47;3.17;;;;;;;25.26;58.55;96674.69;5058170;28;20485;-27
2023/07/24 04:00:28;;;;;;;3.17;2.87;;;;;;;25.26;58.67;96696.97;5057113;28;20558;-27
2023/07/24 04:02:55;;;;;;;3.20;2.90;;;;;;;25.15;58.95;96686.66;5064778;28;20200;-29
2023/07/24 04:05:22;;;;;;;3.40;3.10;;;;;;;25.26;59.07;96714.97;5057137;28;20217;-27
2023/07/24 04:07:48;;;;;;;3.17;2.80;;;;;;;25.23;58.96;96717.53;5056206;28;20208;-29
2023/07/24 04:10:15;;;;;;;3.90;2.80;;;;;;;25.22;59.09;96731.25;5056783;28;20201;-27
2023/07/24 04:12:42;;;;;;;3.50;3.20;;;;;;;25.17;58.88;96744.13;5058174;28;20197;-27
2023/07/24 04:15:09;;;;;;;4.00;3.03;;;;;;;25.22;59.14;96738.97;5057573;28;20208;-27
2023/07/24 04:17:35;;;;;;;4.10;3.23;;;;;;;25.22;58.39;96738.97;5061601;28;20228;-27
2023/07/24 04:20:03;;;;;;;4.57;3.30;;;;;;;25.22;58.68;96754.41;5064997;28;20220;-27
2023/07/24 04:22:29;;;;;;;3.80;3.40;;;;;;;25.20;58.69;96754.41;5055676;28;20201;-27
2023/07/24 04:24:56;;;;;;;4.33;3.67;;;;;;;25.22;58.43;96747.53;5056922;28;20639;-27
2023/07/24 04:27:22;;;;;;;5.33;3.60;;;;;;;25.21;58.72;96745.81;5061027;28;20234;-28
2023/07/24 04:29:49;;;;;;;3.60;3.07;;;;;;;25.21;58.29;96747.53;5061759;28;20580;-27
2023/07/24 04:32:16;;;;;;;3.70;3.20;;;;;;;25.19;58.81;96741.53;5058757;28;20197;-27
2023/07/24 04:34:42;;;;;;;3.93;3.53;;;;;;;25.22;58.32;96765.53;5073232;28;20259;-28
2023/07/24 04:37:09;;;;;;;4.43;3.80;;;;;;;25.22;58.83;96764.69;5082454;28;20423;-27
2023/07/24 04:39:38;;;;;;;4.90;3.60;;;;;;;25.21;58.66;96766.41;5069838;28;20294;-27
2023/07/24 04:42:05;;;;;;;4.80;4.00;;;;;;;25.21;58.58;96766.41;5065282;28;20231;-27
2023/07/24 04:44:32;;;;;;;4.83;4.13;;;;;;;25.22;58.86;96767.28;5078328;28;20196;-27
2023/07/24 04:46:58;;;;;;;4.70;4.20;;;;;;;25.21;58.53;96760.38;5076190;28;20225;-27
2023/07/24 04:49:25;;;;;;;4.10;3.70;;;;;;;25.22;58.56;96751.84;5074722;28;20196;-27
2023/07/24 04:51:51;;;;;;;6.80;4.60;;;;;;;25.22;58.80;96755.25;5077656;28;20892;-27
2023/07/24 04:54:18;;;;;;;4.83;4.10;;;;;;;25.19;58.60;96754.41;5070004;28;20205;-27
2023/07/24 04:56:45;;;;;;;4.57;4.10;;;;;;;25.23;58.55;96745.81;5072155;28;20285;-27
2023/07/24 04:59:11;;;;;;;5.73;4.47;;;;;;;25.21;58.99;96726.94;5067919;28;20231;-27
2023/07/24 05:01:38;;;;;;;6.10;5.23;;;;;;;25.23;58.73;96720.97;5072784;28;20204;-32
2023/07/24 05:04:05;;;;;;;4.90;4.23;;;;;;;25.23;58.91;96720.13;5073680;28;20705;-35
2023/07/24 05:06:31;;;;;;;6.50;5.13;;;;;;;25.21;58.84;96726.94;5072079;28;20269;-27
2023/07/24 05:08:58;;;;;;;5.77;4.63;;;;;;;25.24;58.93;96721.81;5066295;28;20257;-27
2023/07/24 05:11:25;;;;;;;5.43;4.70;;;;;;;25.25;59.20;96716.69;5079179;28;20199;-27
2023/07/24 05:13:51;;;;;;;5.50;4.90;;;;;;;25.24;58.88;96704.69;5083750;28;20233;-27
2023/07/24 05:16:18;;;;;;;6.20;5.10;;;;;;;25.25;58.94;96697.84;5068372;28;20223;-27
2023/07/24 05:18:45;;;;;;;5.40;4.90;;;;;;;25.24;59.09;96699.53;5068051;28;20227;-27
2023/07/24 05:21:11;;;;;;;6.27;4.90;;;;;;;25.27;59.05;96709.84;5079384;28;20196;-27
2023/07/24 05:23:38;;;;;;;6.00;5.00;;;;;;;25.25;59.35;96713.28;5071775;28;20207;-27
2023/07/24 05:26:04;;;;;;;8.90;5.17;;;;;;;25.23;59.17;96717.53;5075270;28;20220;-27
2023/07/24 05:28:31;;;;;;;5.67;5.03;;;;;;;25.25;59.39;96708.97;5066659;28;20205;-27
2023/07/24 05:31:02;;;;;;;9.60;5.53;;;;;;;25.21;59.07;96712.41;5074366;28;20667;-27
2023/07/24 05:33:29;;;;;;;7.23;5.43;;;;;;;25.21;59.21;96711.53;5076851;28;20204;-32
2023/07/24 05:36:00;;;;;;;6.63;5.53;;;;;;;25.17;59.31;96703.81;5084055;28;20224;-27
2023/07/24 05:38:26;;;;;;;6.70;5.10;;;;;;;25.26;59.14;96721.00;5068620;28;20224;-27
2023/07/24 05:41:00;;;;;;;6.33;5.23;;;;;;;25.26;58.92;96705.56;5067236;28;20263;-27
2023/07/24 05:43:27;;;;;;;6.50;5.50;;;;;;;25.25;59.27;96703.81;5078591;28;20199;-27
2023/07/24 05:45:54;;;;;;;7.17;5.70;;;;;;;25.22;59.05;96688.38;5074645;28;20220;-27
2023/07/24 05:48:21;;;;;;;7.33;6.00;;;;;;;25.26;58.95;96682.41;5084299;28;20694;-27
2023/07/24 05:50:48;;;;;;;7.27;5.53;;;;;;;25.26;58.80;96677.25;5072094;28;20196;-27
2023/07/24 05:53:15;;;;;;;6.13;5.23;;;;;;;25.27;58.69;96681.53;5073998;28;20573;-27
2023/07/24 05:55:42;;;;;;;6.93;5.53;;;;;;;25.25;59.11;96688.38;5081890;28;20224;-27
2023/07/24 05:58:09;;;;;;;7.10;5.83;;;;;;;25.24;58.60;96686.69;5079694;28;20199;-27
2023/07/24 06:00:39;;;;;;;6.63;5.17;;;;;;;25.25;58.62;96692.69;5078163;28;20681;-27
2023/07/24 06:03:05;;;;;;;7.03;5.53;;;;;;;25.26;58.59;96684.97;5085788;28;20395;-30
2023/07/24 06:05:34;;;;;;;7.17;5.87;;;;;;;25.23;58.63;96687.53;5081366;28;20796;-28
2023/07/24 06:08:01;;;;;;;5.63;5.03;;;;;;;25.26;58.71;96692.69;5086783;28;20196;-28
2023/07/24 06:10:27;;;;;;;6.93;5.10;;;;;;;25.21;58.88;96693.53;5083931;28;20685;-27
2023/07/24 06:12:54;;;;;;;7.47;5.73;;;;;;;25.26;58.97;96696.97;5084192;28;20254;-27
2023/07/24 06:15:20;;;;;;;7.60;5.77;;;;;;;25.25;58.93;96697.84;5082050;28;20219;-28
2023/07/24 06:17:47;;;;;;;6.47;5.17;;;;;;;25.25;58.94;96700.41;5082726;28;20620;-27
2023/07/24 06:20:17;;;;;;;6.00;5.23;;;;;;;25.25;58.63;96718.41;5065569;28;20278;-27
2023/07/24 06:22:44;;;;;;;6.97;5.47;;;;;;;25.24;59.04;96702.09;5071225;28;20253;-27
2023/07/24 06:25:10;;;;;;;6.20;5.20;;;;;;;25.24;58.62;96703.81;5080099;28;20537;-27
2023/07/24 06:27:37;;;;;;;7.07;5.50;;;;;;;25.24;58.58;96701.25;5068153;28;20201;-27
2023/07/24 06:30:04;;;;;;;6.20;5.37;;;;;;;25.26;58.69;96730.41;5069753;28;20716;-27
2023/07/24 06:32:41;;;;;;;7.80;5.53;;;;;;;25.26;58.61;96710.69;5070846;28;20203;-27
2023/07/24 06:35:08;;;;;;;6.60;5.90;;;;;;;25.27;58.63;96690.97;5079923;28;20205;-28
2023/07/24 06:37:35;;;;;;;7.97;5.87;;;;;;;25.25;58.78;96661.84;5074745;28;20697;-27
2023/07/24 06:40:02;;;;;;;6.47;4.90;;;;;;;25.25;58.66;96674.69;5066613;28;20213;-27
2023/07/24 06:42:28;;;;;;;7.50;5.73;;;;;;;25.24;58.50;96722.69;5084680;28;20261;-27
2023/07/24 06:44:55;;;;;;;6.90;5.63;;;;;;;25.25;58.92;96726.97;5060529;28;20205;-27
2023/07/24 06:47:21;;;;;;;6.43;5.50;;;;;;;25.26;58.93;96702.97;5081507;28;20580;-27
2023/07/24 06:49:48;;;;;;;5.90;5.30;;;;;;;25.25;59.02;96688.38;5066878;28;20192;-28
2023/07/24 06:52:14;;;;;;;7.93;6.03;;;;;;;25.24;58.87;96676.41;5085204;28;20658;-27
2023/07/24 06:54:41;;;;;;;6.47;5.27;;;;;;;25.26;58.80;96666.09;5072517;28;20201;-27
2023/07/24 06:57:08;;;;;;;6.17;5.53;;;;;;;25.25;58.84;96684.97;5072056;28;20231;-27
2023/07/24 06:59:34;;;;;;;5.87;5.07;;;;;;;25.24;58.51;96719.25;5086004;28;20219;-28
2023/07/24 07:02:01;;;;;;;7.63;5.40;;;;;;;25.20;58.54;96733.84;5075585;28;20704;-27
2023/07/24 07:04:28;;;;;;;6.23;5.37;;;;;;;25.26;58.59;96743.25;5069066;28;20205;-27
2023/07/24 07:06:54;;;;;;;7.03;5.77;;;;;;;25.26;58.69;96720.13;5075413;28;20235;-27
2023/07/24 07:09:21;;;;;;;6.43;5.60;;;;;;;25.25;58.48;96723.56;5077464;28;20200;-27
2023/07/24 07:11:48;;;;;;;6.87;5.33;;;;;;;25.22;58.87;96702.97;5084897;28;20203;-27
2023/07/24 07:14:14;;;;;;;6.27;5.40;;;;;;;25.26;58.46;96741.56;5072409;28;20200;-27
2023/07/24 07:16:41;;;;;;;5.93;5.33;;;;;;;25.24;58.48;96791.25;5086408;28;20219;-27
2023/07/24 07:19:09;;;;;;;5.83;5.03;;;;;;;25.24;58.72;96820.41;5075187;28;20767;-27
2023/07/24 07:21:36;;;;;;;6.20;4.80;;;;;;;25.24;58.92;96811.81;5080524;28;20655;-27
2023/07/24 07:24:02;;;;;;;7.20;5.73;;;;;;;25.26;58.40;96817.84;5079375;28;20223;-27
2023/07/24 07:26:29;;;;;;;6.83;5.70;;;;;;;25.28;58.45;96816.16;5079323;28;20217;-27
2023/07/24 07:28:57;;;;;;;6.57;5.37;;;;;;;25.24;58.56;96814.41;5068572;28;20230;-27
2023/07/24 07:31:23;;;;;;;6.37;5.50;;;;;;;25.28;58.34;96816.16;5078364;28;20663;-27
2023/07/24 07:33:50;;;;;;;5.93;4.77;;;;;;;25.27;58.35;96817.84;5078173;28;20290;-27
2023/07/24 07:36:17;;;;;;;6.63;5.43;;;;;;;25.28;58.30;96814.41;5085779;28;20257;-27
2023/07/24 07:38:44;;;;;;;7.47;5.40;;;;;;;25.28;58.83;96808.44;5071912;28;20206;-27
2023/07/24 07:41:11;;;;;;;6.73;5.60;;;;;;;25.28;58.54;96805.88;5078987;28;20223;-27
2023/07/24 07:43:38;;;;;;;6.50;5.60;;;;;;;25.28;58.67;96795.56;5071813;28;20196;-28
2023/07/24 07:46:05;;;;;;;7.93;5.40;;;;;;;25.26;57.87;96808.44;5078086;28;20334;-27
2023/07/24 07:48:32;;;;;;;10.63;6.33;;;;;;;25.26;58.21;96803.28;5063214;28;20208;-32
2023/07/24 07:50:59;;;;;;;6.97;5.80;;;;;;;25.26;58.69;96811.00;5062086;28;20189;-28
2023/07/24 07:53:26;;;;;;;9.47;6.07;;;;;;;25.27;58.31;96806.69;5062764;28;20253;-28
2023/07/24 07:55:57;;;;;;;8.17;6.63;;;;;;;25.25;58.75;96809.25;5070510;28;20220;-27
2023/07/24 07:58:23;;;;;;;8.30;6.40;;;;;;;25.26;58.41;96823.00;5063000;28;20200;-27
2023/07/24 08:00:50;;;;;;;9.10;6.27;;;;;;;25.25;58.65;96829.00;5075341;28;20238;-27
2023/07/24 08:03:17;;;;;;;7.23;5.90;;;;;;;25.27;58.83;96827.28;5057788;28;20201;-27
2023/07/24 08:05:44;;;;;;;11.23;6.23;;;;;;;25.25;58.75;96824.69;5074762;28;20875;-27
2023/07/24 08:08:10;;;;;;;6.63;5.70;;;;;;;25.24;58.44;96833.28;5062041;28;20201;-27
2023/07/24 08:10:38;;;;;;;6.97;5.53;;;;;;;25.26;58.43;96825.56;5075103;28;20202;-27
2023/07/24 08:13:04;;;;;;;7.70;6.03;;;;;;;25.26;58.89;96825.56;5061152;28;20251;-27
2023/07/24 08:15:35;;;;;;;7.23;6.07;;;;;;;25.24;58.41;96794.69;5076805;28;20227;-27
2023/07/24 08:18:03;;;;;;;6.77;5.50;;;;;;;25.21;58.53;96773.25;5080819;28;20616;-27
2023/07/24 08:20:31;;;;;;;6.53;5.60;;;;;;;25.26;58.78;96774.13;5081727;28;20697;-27
2023/07/24 08:22:57;;;;;;;8.77;5.83;;;;;;;25.24;58.80;96776.69;5074213;28;20203;-27
2023/07/24 08:25:24;;;;;;;6.80;5.30;;;;;;;25.27;58.50;96804.13;5066638;28;20227;-27
2023/07/24 08:27:51;;;;;;;6.70;5.73;;;;;;;25.26;58.53;96787.84;5052326;28;20204;-27
2023/07/24 08:30:31;;;;;;;6.43;5.43;;;;;;;25.28;58.68;96777.56;5060016;28;20648;-27
2023/07/24 08:32:58;;;;;;;9.73;5.23;;;;;;;25.27;58.51;96774.13;5066183;28;20321;-27
2023/07/24 08:35:26;;;;;;;8.97;5.70;;;;;;;25.26;58.61;96754.41;5068612;28;20272;-27
2023/07/24 08:37:52;;;;;;;6.03;5.30;;;;;;;25.27;58.56;96734.69;5079710;28;20204;-27
2023/07/24 08:40:19;;;;;;;7.13;5.83;;;;;;;25.28;58.57;96718.41;5068023;28;20225;-27
2023/07/24 08:42:46;;;;;;;6.60;5.17;;;;;;;25.27;58.52;96681.53;5071851;28;20214;-27
2023/07/24 08:45:13;;;;;;;6.87;5.50;;;;;;;25.28;58.92;96716.69;5058981;28;20266;-27
2023/07/24 08:47:46;;;;;;;7.57;6.10;;;;;;;25.29;58.52;96759.56;5081256;28;20206;-27
2023/07/24 08:50:15;;;;;;;5.90;4.90;;;;;;;25.28;58.38;96711.53;5063588;28;20588;-27
2023/07/24 08:52:42;;;;;;;6.27;5.30;;;;;;;25.28;58.44;96711.53;5082475;28;20204;-27
2023/07/24 08:55:09;;;;;;;8.90;5.43;;;;;;;25.25;58.80;96708.97;5078986;28;20310;-27
2023/07/24 08:57:36;;;;;;;5.50;4.93;;;;;;;25.27;58.61;96732.97;5070272;28;20690;-27
2023/07/24 09:00:04;;;;;;;5.90;5.30;;;;;;;25.26;58.69;96732.97;5068831;28;20219;-27
2023/07/24 09:02:32;;;;;;;6.30;5.07;;;;;;;25.25;58.70;96731.28;5063718;28;20207;-27
2023/07/24 09:04:59;;;;;;;5.80;5.20;;;;;;;25.25;58.74;96739.00;5066820;28;20280;-27
2023/07/24 09:07:26;;;;;;;6.63;5.00;;;;;;;25.27;58.27;96743.28;5064619;28;20207;-28
2023/07/24 09:09:52;;;;;;;6.00;5.40;;;;;;;25.30;58.28;96755.25;5066923;28;20224;-27
2023/07/24 09:12:21;;;;;;;8.20;5.67;;;;;;;25.29;58.37;96762.16;5080146;28;20735;-27
2023/07/24 09:14:47;;;;;;;6.27;5.53;;;;;;;25.29;58.50;96740.69;5070413;28;20215;-27
2023/07/24 09:17:14;;;;;;;6.90;5.47;;;;;;;25.29;58.67;96720.13;5084524;28;20227;-28
2023/07/24 09:19:41;;;;;;;7.10;5.60;;;;;;;25.26;58.25;96714.97;5081108;28;20562;-27
2023/07/24 09:22:12;;;;;;;5.87;5.17;;;;;;;25.27;58.44;96702.13;5075384;28;20204;-27
2023/07/24 09:24:55;;;;;;;8.07;5.57;;;;;;;25.29;58.67;96712.41;5067860;28;20266;-27
2023/07/24 09:27:26;;;;;;;6.70;5.33;;;;;;;25.28;58.51;96715.84;5079701;28;20247;-27
2023/07/24 09:29:53;;;;;;;6.83;5.07;;;;;;;25.28;58.35;96705.56;5070689;28;20201;-27
2023/07/24 09:32:23;;;;;;;6.00;5.23;;;;;;;25.28;58.35;96703.81;5065406;28;20681;-27
2023/07/24 09:34:50;;;;;;;5.73;5.13;;;;;;;25.28;58.71;96682.41;5073863;28;20196;-27
2023/07/24 09:37:27;;;;;;;5.77;5.10;;;;;;;25.27;58.26;96681.53;5061810;28;20201;-28
2023/07/24 09:39:54;;;;;;;5.63;5.03;;;;;;;25.27;58.35;96676.41;5080223;28;20237;-27
2023/07/24 09:42:31;;;;;;;5.40;4.90;;;;;;;25.28;58.20;96664.41;5063121;28;20220;-27
2023/07/24 09:44:58;;;;;;;5.90;4.90;;;;;;;25.28;58.28;96667.81;5074210;28;20578;-27
2023/07/24 09:47:25;;;;;;;5.53;4.93;;;;;;;25.23;58.30;96641.25;5077533;28;20622;-28
2023/07/24 09:50:11;;;;;;;5.40;4.87;;;;;;;25.24;58.62;96645.53;5074411;28;20287;-29
2023/07/24 09:52:41;;;;;;;5.40;4.90;;;;;;;25.23;58.43;96655.81;5068691;28;20215;-27
2023/07/24 09:55:12;;;;;;;5.13;4.63;;;;;;;25.25;58.61;96677.25;5075829;28;20200;-27
2023/07/24 09:57:39;;;;;;;5.33;4.50;;;;;;;25.24;58.56;96672.94;5063464;28;20200;-28
2023/07/24 10:00:07;;;;;;;4.93;4.40;;;;;;;25.26;58.21;96672.13;5070046;28;20235;-34
2023/07/24 10:02:34;;;;;;;5.27;4.70;;;;;;;25.23;58.37;96677.25;5065524;28;20201;-27
2023/07/24 10:05:00;;;;;;;5.50;4.97;;;;;;;25.25;58.31;96675.53;5048943;28;20668;-27
2023/07/24 10:07:27;;;;;;;7.00;5.30;;;;;;;25.26;58.43;96677.25;5068096;28;20214;-28
2023/07/24 10:09:53;;;;;;;5.83;4.67;;;;;;;25.28;58.60;96672.13;5071776;28;20252;-27
2023/07/24 10:12:20;;;;;;;4.97;4.47;;;;;;;25.29;58.34;96684.13;5052909;28;20196;-27
2023/07/24 10:14:47;;;;;;;5.57;4.70;;;;;;;25.26;58.36;96681.53;5068836;28;20283;-28
2023/07/24 10:17:13;;;;;;;6.53;4.90;;;;;;;25.29;58.36;96682.41;5057855;28;20216;-27
2023/07/24 10:19:43;;;;;;;6.77;4.90;;;;;;;25.29;58.14;96672.13;5077670;28;20223;-27
2023/07/24 10:22:18;;;;;;;5.37;4.83;;;;;;;25.27;58.10;96665.25;5083854;28;20199;-28
2023/07/24 10:24:46;;;;;;;5.67;4.90;;;;;;;25.29;58.49;96659.25;5078490;28;20663;-27
2023/07/24 10:27:12;;;;;;;6.07;4.73;;;;;;;25.29;58.11;96666.97;5080700;28;20216;-27
2023/07/24 10:29:39;;;;;;;6.33;4.90;;;;;;;25.24;57.91;96657.53;5063869;28;20197;-27
2023/07/24 10:32:18;;;;;;;5.20;4.43;;;;;;;25.29;58.44;96661.84;5068063;28;20550;-29
2023/07/24 10:34:45;;;;;;;4.47;4.07;;;;;;;25.30;58.12;96654.97;5069327;28;20258;-28
2023/07/24 10:37:11;;;;;;;7.13;4.40;;;;;;;25.29;58.16;96650.69;5081589;28;20568;-27
2023/07/24 10:39:40;;;;;;;6.87;4.57;;;;;;;25.29;57.92;96642.97;5068964;28;20195;-28
2023/07/24 10:42:10;;;;;;;6.20;4.83;;;;;;;25.29;57.96;96645.53;5056175;28;20229;-27
2023/07/24 10:44:37;;;;;;;4.67;4.17;;;;;;;25.30;58.03;96645.53;5074211;28;20283;-28
2023/07/24 10:47:04;;;;;;;5.77;5.17;;;;;;;25.28;58.16;96642.09;5061188;28;20216;-32
2023/07/24 10:49:30;;;;;;;5.77;4.70;;;;;;;25.29;58.47;96645.53;5075443;28;20259;-27
2023/07/24 10:51:58;;;;;;;5.47;4.93;;;;;;;25.28;58.04;96651.56;5069045;28;20196;-27
2023/07/24 10:54:24;;;;;;;6.30;5.17;;;;;;;25.28;58.58;96656.69;5077445;28;20192;-27
2023/07/24 10:56:58;;;;;;;5.20;4.70;;;;;;;25.29;58.43;96658.41;5069122;28;20251;-27
2023/07/24 10:59:36;;;;;;;8.70;5.17;;;;;;;25.29;58.53;96656.69;5067492;28;20192;-26
2023/07/24 11:02:04;;;;;;;5.40;4.30;;;;;;;25.29;58.43;96668.69;5086110;28;20196;-27
2023/07/24 11:04:31;;;;;;;6.20;5.00;;;;;;;25.28;58.51;96652.38;5081489;28;20212;-27
2023/07/24 11:06:58;;;;;;;4.50;4.10;;;;;;;25.29;58.99;96648.97;5051367;28;20216;-27
2023/07/24 11:09:35;;;;;;;6.27;5.27;;;;;;;25.31;63.46;96644.66;5063447;28;20354;-27
2023/07/24 11:12:12;;;;;;;5.63;5.07;;;;;;;25.30;63.62;96657.53;5078203;28;20195;-27
2023/07/24 11:14:55;;;;;;;5.97;5.27;;;;;;;25.31;64.82;96659.25;5070463;28;20202;-27
2023/07/24 11:17:21;;;;;;;7.60;5.40;;;;;;;25.23;64.62;96642.97;5067738;28;20200;-27
2023/07/24 11:19:48;;;;;;;7.33;5.63;;;;;;;25.28;64.51;96660.09;5080545;28;20196;-27
2023/07/24 11:22:15;;;;;;;5.77;4.87;;;;;;;25.28;63.49;96651.56;5063234;28;20351;-28
2023/07/24 11:24:50;;;;;;;6.03;5.30;;;;;;;25.28;62.95;96654.13;5074731;28;20695;-27
2023/07/24 11:27:18;;;;;;;8.53;5.20;;;;;;;25.26;62.38;96648.97;5066959;28;20214;-26
2023/07/24 11:29:49;;;;;;;6.03;5.03;;;;;;;25.25;62.28;96656.69;5066677;28;20569;-27
2023/07/24 11:32:21;;;;;;;6.30;5.50;;;;;;;25.24;61.45;96663.53;5072111;28;20200;-27
2023/07/24 11:34:49;;;;;;;7.37;5.47;;;;;;;25.22;61.30;96656.69;5059644;28;20195;-26